Newvida — V7KQ7 — position and weather

sailwx.info

Track history (hours):
 
Tides and Currents Weather Stations Pressure Air Temp Water Temp Dewpoint Dewpoint Depression Visibility Wind Speed Wind Dir Waves Ship Positions

Newvida

Last reported at 2017-Feb-24 21:30 UTC. Time now 2017-Feb-24 21:39 UTC.
Position N 25°28' W 080°03'.

Length 56 m; draft 2.4 m.

Type: Pleasure craft. MMSI: 538080049.

Date/timePositionNaut miles runAvg speedWind from/ knotsBaromVisibWave heightAir tempDewpointWater temp
2017-Feb-24 21:30N 25°28' W 080°03'7 7.1
2017-Feb-24 20:33N 25°35' W 080°02'8 7.9
2017-Feb-24 19:33N 25°43' W 080°03'1 0.7
2017-Feb-24 18:33N 25°42' W 080°02'4 4.2
2017-Feb-24 17:33N 25°46' W 080°04'5 4.7
2017-Feb-24 16:33N 25°51' W 080°03'1111.2
2017-Feb-24 15:33N 26°02' W 080°04'6 5.6
2017-Feb-24 14:33N 26°07' W 080°07'2 2.2
2017-Feb-24 13:32N 26°06' W 080°10'1 0.5
2017-Feb-24 12:29N 26°06' W 080°10'0 0.0
2017-Feb-24 11:32N 26°06' W 080°10'0 0.0
2017-Feb-24 10:32N 26°06' W 080°10'0 0.0
2017-Feb-24 09:32N 26°06' W 080°10'0 0.0
2017-Feb-24 08:32N 26°06' W 080°10'0 0.0
2017-Feb-24 07:32N 26°06' W 080°10'0 0.0
2017-Feb-24 06:23N 26°06' W 080°10'0 0.0
2017-Feb-24 05:26N 26°06' W 080°10'0 0.0
2017-Feb-24 04:26N 26°06' W 080°10'0 0.0
2017-Feb-24 03:26N 26°06' W 080°10'0 0.0
2017-Feb-24 02:29N 26°06' W 080°10'0 0.0
2017-Feb-24 01:29N 26°06' W 080°10'0 0.0
2017-Feb-24 00:29N 26°06' W 080°10'0 0.0
2017-Feb-23 23:32N 26°06' W 080°10'0 0.0
2017-Feb-23 22:29N 26°06' W 080°10'0 0.0
2017-Feb-23 21:32N 26°06' W 080°10'0 0.0
2017-Feb-23 20:32N 26°06' W 080°10'0 0.0
2017-Feb-23 19:32N 26°06' W 080°10'0 0.0
2017-Feb-23 18:32N 26°06' W 080°10'0 0.0
2017-Feb-23 17:32N 26°06' W 080°10'0 0.0
2017-Feb-23 16:23N 26°06' W 080°10'0 0.0
2017-Feb-23 15:26N 26°06' W 080°10'0 0.0
2017-Feb-23 14:26N 26°06' W 080°10'0 0.0
2017-Feb-23 13:23N 26°06' W 080°10'0 0.0
2017-Feb-23 12:29N 26°06' W 080°10'0 0.0
2017-Feb-23 11:29N 26°06' W 080°10'0 0.0
2017-Feb-23 10:29N 26°06' W 080°10'0 0.0
2017-Feb-23 09:32N 26°06' W 080°10'0 0.0
2017-Feb-23 08:32N 26°06' W 080°10'0 0.0
2017-Feb-23 07:32N 26°06' W 080°10'0 0.0
2017-Feb-23 06:20N 26°06' W 080°10'0 0.0
2017-Feb-23 05:32N 26°06' W 080°10'0 0.0
2017-Feb-23 04:32N 26°06' W 080°10'0 0.0
2017-Feb-23 03:23N 26°06' W 080°10'0 0.0
2017-Feb-23 02:23N 26°06' W 080°10'0 0.0
2017-Feb-23 01:26N 26°06' W 080°10'0 0.0
2017-Feb-23 00:26N 26°06' W 080°10'0 0.0
2017-Feb-22 23:26N 26°06' W 080°10'0 0.0
2017-Feb-22 22:29N 26°06' W 080°10'0 0.0
2017-Feb-22 21:29N 26°06' W 080°10'0 0.0
2017-Feb-22 20:29N 26°06' W 080°10'0 0.0
2017-Feb-22 19:32N 26°06' W 080°10'0 0.0
2017-Feb-22 18:32N 26°06' W 080°10'0 0.0
2017-Feb-22 17:32N 26°06' W 080°10'0 0.0
2017-Feb-22 16:32N 26°06' W 080°10'0 0.0
2017-Feb-22 15:32N 26°06' W 080°10'0 0.0
2017-Feb-22 14:32N 26°06' W 080°10'0 0.0
2017-Feb-22 13:32N 26°06' W 080°10'0 0.0
2017-Feb-22 12:23N 26°06' W 080°10'0 0.0
2017-Feb-22 11:23N 26°06' W 080°10'0 0.0
2017-Feb-22 10:26N 26°06' W 080°10'0 0.0
2017-Feb-22 09:26N 26°06' W 080°10'0 0.0
2017-Feb-22 08:26N 26°06' W 080°10'0 0.0
2017-Feb-22 07:29N 26°06' W 080°10'0 0.0
2017-Feb-22 06:29N 26°06' W 080°10'0 0.0
2017-Feb-22 05:32N 26°06' W 080°10'0 0.0
2017-Feb-22 04:29N 26°06' W 080°10'0 0.0
2017-Feb-22 03:32N 26°06' W 080°10'0 0.0
2017-Feb-22 02:32N 26°06' W 080°10'0 0.0
2017-Feb-22 01:32N 26°06' W 080°10'0 0.0
2017-Feb-22 00:32N 26°06' W 080°10'0 0.0
2017-Feb-21 23:32N 26°06' W 080°10'0 0.0
2017-Feb-21 22:32N 26°06' W 080°10'0 0.0
2017-Feb-21 21:23N 26°06' W 080°10'0 0.0
2017-Feb-21 20:26N 26°06' W 080°10'0 0.0
2017-Feb-21 19:26N 26°06' W 080°10'0 0.0
2017-Feb-21 18:26N 26°06' W 080°10'0 0.0
2017-Feb-21 17:29N 26°06' W 080°10'0 0.0
2017-Feb-21 16:29N 26°06' W 080°10'0 0.0
2017-Feb-21 15:29N 26°06' W 080°10'0 0.0
2017-Feb-20 18:25N 26°06' W 080°10'0 0.0
2017-Feb-20 17:28N 26°06' W 080°10'0 0.0
2017-Feb-20 16:28N 26°06' W 080°10'0 0.0
2017-Feb-20 15:28N 26°06' W 080°10'0 0.0
2017-Feb-20 14:31N 26°06' W 080°10'0 0.0
2017-Feb-20 13:31N 26°06' W 080°10'0 0.0
2017-Feb-20 12:28N 26°06' W 080°10'0 0.0
2017-Feb-20 11:31N 26°06' W 080°10'0 0.0
2017-Feb-20 10:31N 26°06' W 080°10'0 0.0
2017-Feb-20 09:31N 26°06' W 080°10'0 0.0
2017-Feb-20 08:31N 26°06' W 080°10'0 0.0
2017-Feb-20 07:19N 26°06' W 080°10'0 0.0
2017-Feb-20 06:25N 26°06' W 080°10'0 0.0
2017-Feb-20 05:25N 26°06' W 080°10'0 0.0
2017-Feb-20 04:25N 26°06' W 080°10'0 0.0
2017-Feb-20 03:28N 26°06' W 080°10'0 0.0
2017-Feb-20 02:28N 26°06' W 080°10'0 0.0
2017-Feb-20 01:28N 26°06' W 080°10'0 0.0
2017-Feb-20 00:31N 26°06' W 080°10'0 0.0
2017-Feb-19 23:31N 26°06' W 080°10'0 0.0
2017-Feb-19 22:31N 26°06' W 080°10'0 0.0
2017-Feb-19 21:31N 26°06' W 080°10'0 0.0
2017-Feb-19 20:31N 26°06' W 080°10'0 0.0
2017-Feb-19 19:31N 26°06' W 080°10'0 0.0
2017-Feb-19 18:31N 26°06' W 080°10'0 0.0
2017-Feb-19 17:22N 26°06' W 080°10'0 0.0
2017-Feb-19 16:25N 26°06' W 080°10'0 0.0
2017-Feb-19 15:25N 26°06' W 080°10'0 0.0
2017-Feb-19 14:25N 26°06' W 080°10'0 0.0
2017-Feb-19 13:28N 26°06' W 080°10'0 0.0
2017-Feb-19 12:28N 26°06' W 080°10'0 0.0
2017-Feb-19 11:28N 26°06' W 080°10'0 0.0
2017-Feb-19 10:31N 26°06' W 080°10'0 0.0
2017-Feb-19 09:31N 26°06' W 080°10'0 0.0
2017-Feb-19 08:31N 26°06' W 080°10'0 0.0
2017-Feb-19 07:31N 26°06' W 080°10'0 0.0
2017-Feb-19 06:31N 26°06' W 080°10'0 0.0
2017-Feb-19 05:31N 26°06' W 080°10'0 0.0
2017-Feb-19 04:34N 26°06' W 080°10'0 0.0
2017-Feb-19 03:22N 26°06' W 080°10'0 0.0
2017-Feb-19 02:22N 26°06' W 080°10'0 0.0
2017-Feb-19 01:25N 26°06' W 080°10'0 0.0
2017-Feb-19 00:25N 26°06' W 080°10'0 0.0
2017-Feb-18 23:28N 26°06' W 080°10'0 0.0
2017-Feb-18 22:28N 26°06' W 080°10'0 0.0
2017-Feb-18 21:28N 26°06' W 080°10'0 0.0
2017-Feb-18 20:31N 26°06' W 080°10'0 0.0
2017-Feb-18 19:31N 26°06' W 080°10'0 0.0
2017-Feb-18 18:31N 26°06' W 080°10'0 0.0
2017-Feb-18 17:34N 26°06' W 080°10'0 0.0
2017-Feb-18 16:34N 26°06' W 080°10'0 0.0
2017-Feb-18 15:34N 26°06' W 080°10'0 0.0
2017-Feb-18 14:34N 26°06' W 080°10'0 0.0
2017-Feb-18 13:34N 26°06' W 080°10'0 0.0
2017-Feb-18 12:34N 26°06' W 080°10'0 0.0
2017-Feb-18 11:25N 26°06' W 080°10'0 0.0
2017-Feb-18 10:25N 26°06' W 080°10'0 0.0
2017-Feb-18 09:25N 26°06' W 080°10'0 0.0
2017-Feb-18 08:28N 26°06' W 080°10'0 0.0
2017-Feb-18 07:28N 26°06' W 080°10'0 0.0
2017-Feb-18 06:28N 26°06' W 080°10'0 0.0
2017-Feb-18 05:31N 26°06' W 080°10'0 0.0
2017-Feb-18 04:31N 26°06' W 080°10'0 0.0
2017-Feb-18 03:34N 26°06' W 080°10'0 0.0
2017-Feb-18 02:34N 26°06' W 080°10'0 0.0
2017-Feb-18 01:34N 26°06' W 080°10'0 0.0
2017-Feb-18 00:34N 26°06' W 080°10'0 0.0
2017-Feb-17 23:34N 26°06' W 080°10'0 0.0
2017-Feb-17 22:34N 26°06' W 080°10'0 0.0
2017-Feb-17 21:34N 26°06' W 080°10'0 0.0
2017-Feb-17 20:34N 26°06' W 080°10'0 0.0
2017-Feb-17 19:26N 26°06' W 080°10'0 0.0
2017-Feb-17 18:25N 26°06' W 080°10'0 0.0
2017-Feb-17 17:25N 26°06' W 080°10'0 0.0
2017-Feb-17 16:25N 26°06' W 080°10'0 0.0
2017-Feb-17 15:28N 26°06' W 080°10'0 0.0
2017-Feb-17 14:28N 26°06' W 080°10'0 0.0
2017-Feb-17 13:28N 26°06' W 080°10'0 0.0
2017-Feb-17 12:31N 26°06' W 080°10'0 0.0
2017-Feb-17 11:31N 26°06' W 080°10'0 0.0
2017-Feb-17 10:31N 26°06' W 080°10'0 0.0
2017-Feb-17 09:28N 26°06' W 080°10'0 0.0
2017-Feb-17 08:31N 26°06' W 080°10'0 0.0
2017-Feb-17 07:31N 26°06' W 080°10'0 0.0
2017-Feb-17 06:31N 26°06' W 080°10'0 0.0
2017-Feb-17 05:22N 26°06' W 080°10'0 0.0
2017-Feb-17 04:25N 26°06' W 080°10'0 0.0
2017-Feb-17 03:25N 26°06' W 080°10'0 0.0
2017-Feb-17 02:10N 26°06' W 080°10'0 0.0
2017-Feb-17 01:28N 26°06' W 080°10'0 0.0
2017-Feb-17 00:28N 26°06' W 080°10'0 0.0
2017-Feb-16 23:28N 26°06' W 080°10'0 0.0
2017-Feb-16 22:31N 26°06' W 080°10'0 0.0
2017-Feb-16 21:28N 26°06' W 080°10'0 0.0
2017-Feb-16 20:31N 26°06' W 080°10'0 0.0
2017-Feb-16 19:31N 26°06' W 080°10'0 0.0
2017-Feb-16 18:31N 26°06' W 080°10'0 0.0
2017-Feb-16 17:31N 26°06' W 080°10'0 0.0
2017-Feb-16 16:31N 26°06' W 080°10'0 0.0
2017-Feb-16 15:22N 26°06' W 080°10'0 0.0
2017-Feb-16 14:19N 26°06' W 080°10'0 0.0
2017-Feb-16 13:25N 26°06' W 080°10'0 0.0
2017-Feb-16 12:25N 26°06' W 080°10'0 0.0
2017-Feb-16 11:25N 26°06' W 080°10'0 0.0
2017-Feb-16 10:28N 26°06' W 080°10'0 0.0
2017-Feb-16 09:28N 26°06' W 080°10'0 0.0
2017-Feb-16 08:31N 26°06' W 080°10'0 0.0
2017-Feb-16 07:31N 26°06' W 080°10'0 0.0
2017-Feb-16 06:28N 26°06' W 080°10'0 0.0
2017-Feb-16 05:31N 26°06' W 080°10'0 0.0
2017-Feb-16 04:31N 26°06' W 080°10'0 0.0
2017-Feb-16 03:31N 26°06' W 080°10'0 0.0
2017-Feb-16 02:31N 26°06' W 080°10'0 0.0
2017-Feb-16 01:22N 26°06' W 080°10'0 0.0
2017-Feb-16 00:22N 26°06' W 080°10'0 0.0
2017-Feb-15 23:25N 26°06' W 080°10'0 0.0
2017-Feb-15 22:25N 26°06' W 080°10'0 0.0
2017-Feb-15 21:25N 26°06' W 080°10'0 0.0
2017-Feb-15 20:25N 26°06' W 080°10'0 0.0
2017-Feb-15 19:28N 26°06' W 080°10'0 0.0
2017-Feb-15 18:28N 26°06' W 080°10'0 0.0
2017-Feb-15 17:31N 26°06' W 080°10'0 0.0
2017-Feb-15 16:31N 26°06' W 080°10'0 0.0
2017-Feb-15 15:31N 26°06' W 080°10'0 0.0
2017-Feb-15 14:31N 26°06' W 080°10'0 0.0
2017-Feb-15 13:31N 26°06' W 080°10'0 0.0
2017-Feb-15 12:31N 26°06' W 080°10'0 0.0
2017-Feb-15 11:31N 26°06' W 080°10'0 0.0
2017-Feb-15 10:22N 26°06' W 080°10'0 0.0
2017-Feb-15 09:25N 26°06' W 080°10'0 0.0
2017-Feb-15 08:25N 26°06' W 080°10'0 0.0
2017-Feb-15 07:25N 26°06' W 080°10'0 0.0
2017-Feb-15 06:28N 26°06' W 080°10'0 0.0
2017-Feb-15 05:28N 26°06' W 080°10'0 0.0
2017-Feb-15 04:28N 26°06' W 080°10'0 0.0
2017-Feb-15 03:31N 26°06' W 080°10'0 0.0
2017-Feb-15 02:31N 26°06' W 080°10'0 0.0
2017-Feb-15 01:31N 26°06' W 080°10'0 0.0
2017-Feb-15 00:31N 26°06' W 080°10'0 0.0
2017-Feb-14 23:31N 26°06' W 080°10'0 0.0
2017-Feb-14 22:31N 26°06' W 080°10'0 0.0
2017-Feb-14 21:31N 26°06' W 080°10'  
Track history (hours):
 
Tides and Currents Weather Stations Pressure Air Temp Water Temp Dewpoint Dewpoint Depression Visibility Wind Speed Wind Dir Waves Ship Positions

Newvida

Last reported at 2017-Feb-24 21:30 UTC. Time now 2017-Feb-24 21:39 UTC.
Position N 25°28' W 080°03'.

Length 56 m; draft 2.4 m.

Type: Pleasure craft. MMSI: 538080049.

Date/timePositionNaut miles runAvg speedWind from/ knotsBaromVisibWave heightAir tempDewpointWater temp
2017-Feb-24 21:30N 25°28' W 080°03'7 7.1
2017-Feb-24 20:33N 25°35' W 080°02'8 7.9
2017-Feb-24 19:33N 25°43' W 080°03'1 0.7
2017-Feb-24 18:33N 25°42' W 080°02'4 4.2
2017-Feb-24 17:33N 25°46' W 080°04'5 4.7
2017-Feb-24 16:33N 25°51' W 080°03'1111.2
2017-Feb-24 15:33N 26°02' W 080°04'6 5.6
2017-Feb-24 14:33N 26°07' W 080°07'2 2.2
2017-Feb-24 13:32N 26°06' W 080°10'1 0.5
2017-Feb-24 12:29N 26°06' W 080°10'0 0.0
2017-Feb-24 11:32N 26°06' W 080°10'0 0.0
2017-Feb-24 10:32N 26°06' W 080°10'0 0.0
2017-Feb-24 09:32N 26°06' W 080°10'0 0.0
2017-Feb-24 08:32N 26°06' W 080°10'0 0.0
2017-Feb-24 07:32N 26°06' W 080°10'0 0.0
2017-Feb-24 06:23N 26°06' W 080°10'0 0.0
2017-Feb-24 05:26N 26°06' W 080°10'0 0.0
2017-Feb-24 04:26N 26°06' W 080°10'0 0.0
2017-Feb-24 03:26N 26°06' W 080°10'0 0.0
2017-Feb-24 02:29N 26°06' W 080°10'0 0.0
2017-Feb-24 01:29N 26°06' W 080°10'0 0.0
2017-Feb-24 00:29N 26°06' W 080°10'0 0.0
2017-Feb-23 23:32N 26°06' W 080°10'0 0.0
2017-Feb-23 22:29N 26°06' W 080°10'0 0.0
2017-Feb-23 21:32N 26°06' W 080°10'0 0.0
2017-Feb-23 20:32N 26°06' W 080°10'0 0.0
2017-Feb-23 19:32N 26°06' W 080°10'0 0.0
2017-Feb-23 18:32N 26°06' W 080°10'0 0.0
2017-Feb-23 17:32N 26°06' W 080°10'0 0.0
2017-Feb-23 16:23N 26°06' W 080°10'0 0.0
2017-Feb-23 15:26N 26°06' W 080°10'0 0.0
2017-Feb-23 14:26N 26°06' W 080°10'0 0.0
2017-Feb-23 13:23N 26°06' W 080°10'0 0.0
2017-Feb-23 12:29N 26°06' W 080°10'0 0.0
2017-Feb-23 11:29N 26°06' W 080°10'0 0.0
2017-Feb-23 10:29N 26°06' W 080°10'0 0.0
2017-Feb-23 09:32N 26°06' W 080°10'0 0.0
2017-Feb-23 08:32N 26°06' W 080°10'0 0.0
2017-Feb-23 07:32N 26°06' W 080°10'0 0.0
2017-Feb-23 06:20N 26°06' W 080°10'0 0.0
2017-Feb-23 05:32N 26°06' W 080°10'0 0.0
2017-Feb-23 04:32N 26°06' W 080°10'0 0.0
2017-Feb-23 03:23N 26°06' W 080°10'0 0.0
2017-Feb-23 02:23N 26°06' W 080°10'0 0.0
2017-Feb-23 01:26N 26°06' W 080°10'0 0.0
2017-Feb-23 00:26N 26°06' W 080°10'0 0.0
2017-Feb-22 23:26N 26°06' W 080°10'0 0.0
2017-Feb-22 22:29N 26°06' W 080°10'0 0.0
2017-Feb-22 21:29N 26°06' W 080°10'0 0.0
2017-Feb-22 20:29N 26°06' W 080°10'0 0.0
2017-Feb-22 19:32N 26°06' W 080°10'0 0.0
2017-Feb-22 18:32N 26°06' W 080°10'0 0.0
2017-Feb-22 17:32N 26°06' W 080°10'0 0.0
2017-Feb-22 16:32N 26°06' W 080°10'0 0.0
2017-Feb-22 15:32N 26°06' W 080°10'0 0.0
2017-Feb-22 14:32N 26°06' W 080°10'0 0.0
2017-Feb-22 13:32N 26°06' W 080°10'0 0.0
2017-Feb-22 12:23N 26°06' W 080°10'0 0.0
2017-Feb-22 11:23N 26°06' W 080°10'0 0.0
2017-Feb-22 10:26N 26°06' W 080°10'0 0.0
2017-Feb-22 09:26N 26°06' W 080°10'0 0.0
2017-Feb-22 08:26N 26°06' W 080°10'0 0.0
2017-Feb-22 07:29N 26°06' W 080°10'0 0.0
2017-Feb-22 06:29N 26°06' W 080°10'0 0.0
2017-Feb-22 05:32N 26°06' W 080°10'0 0.0
2017-Feb-22 04:29N 26°06' W 080°10'0 0.0
2017-Feb-22 03:32N 26°06' W 080°10'0 0.0
2017-Feb-22 02:32N 26°06' W 080°10'0 0.0
2017-Feb-22 01:32N 26°06' W 080°10'0 0.0
2017-Feb-22 00:32N 26°06' W 080°10'0 0.0
2017-Feb-21 23:32N 26°06' W 080°10'0 0.0
2017-Feb-21 22:32N 26°06' W 080°10'0 0.0
2017-Feb-21 21:23N 26°06' W 080°10'0 0.0
2017-Feb-21 20:26N 26°06' W 080°10'0 0.0
2017-Feb-21 19:26N 26°06' W 080°10'0 0.0
2017-Feb-21 18:26N 26°06' W 080°10'0 0.0
2017-Feb-21 17:29N 26°06' W 080°10'0 0.0
2017-Feb-21 16:29N 26°06' W 080°10'0 0.0
2017-Feb-21 15:29N 26°06' W 080°10'0 0.0
2017-Feb-20 18:25N 26°06' W 080°10'0 0.0
2017-Feb-20 17:28N 26°06' W 080°10'0 0.0
2017-Feb-20 16:28N 26°06' W 080°10'0 0.0
2017-Feb-20 15:28N 26°06' W 080°10'0 0.0
2017-Feb-20 14:31N 26°06' W 080°10'0 0.0
2017-Feb-20 13:31N 26°06' W 080°10'0 0.0
2017-Feb-20 12:28N 26°06' W 080°10'0 0.0
2017-Feb-20 11:31N 26°06' W 080°10'0 0.0
2017-Feb-20 10:31N 26°06' W 080°10'0 0.0
2017-Feb-20 09:31N 26°06' W 080°10'0 0.0
2017-Feb-20 08:31N 26°06' W 080°10'0 0.0
2017-Feb-20 07:19N 26°06' W 080°10'0 0.0
2017-Feb-20 06:25N 26°06' W 080°10'0 0.0
2017-Feb-20 05:25N 26°06' W 080°10'0 0.0
2017-Feb-20 04:25N 26°06' W 080°10'0 0.0
2017-Feb-20 03:28N 26°06' W 080°10'0 0.0
2017-Feb-20 02:28N 26°06' W 080°10'0 0.0
2017-Feb-20 01:28N 26°06' W 080°10'0 0.0
2017-Feb-20 00:31N 26°06' W 080°10'0 0.0
2017-Feb-19 23:31N 26°06' W 080°10'0 0.0
2017-Feb-19 22:31N 26°06' W 080°10'0 0.0
2017-Feb-19 21:31N 26°06' W 080°10'0 0.0
2017-Feb-19 20:31N 26°06' W 080°10'0 0.0
2017-Feb-19 19:31N 26°06' W 080°10'0 0.0
2017-Feb-19 18:31N 26°06' W 080°10'0 0.0
2017-Feb-19 17:22N 26°06' W 080°10'0 0.0
2017-Feb-19 16:25N 26°06' W 080°10'0 0.0
2017-Feb-19 15:25N 26°06' W 080°10'0 0.0
2017-Feb-19 14:25N 26°06' W 080°10'0 0.0
2017-Feb-19 13:28N 26°06' W 080°10'0 0.0
2017-Feb-19 12:28N 26°06' W 080°10'0 0.0
2017-Feb-19 11:28N 26°06' W 080°10'0 0.0
2017-Feb-19 10:31N 26°06' W 080°10'0 0.0
2017-Feb-19 09:31N 26°06' W 080°10'0 0.0
2017-Feb-19 08:31N 26°06' W 080°10'0 0.0
2017-Feb-19 07:31N 26°06' W 080°10'0 0.0
2017-Feb-19 06:31N 26°06' W 080°10'0 0.0
2017-Feb-19 05:31N 26°06' W 080°10'0 0.0
2017-Feb-19 04:34N 26°06' W 080°10'0 0.0
2017-Feb-19 03:22N 26°06' W 080°10'0 0.0
2017-Feb-19 02:22N 26°06' W 080°10'0 0.0
2017-Feb-19 01:25N 26°06' W 080°10'0 0.0
2017-Feb-19 00:25N 26°06' W 080°10'0 0.0
2017-Feb-18 23:28N 26°06' W 080°10'0 0.0
2017-Feb-18 22:28N 26°06' W 080°10'0 0.0
2017-Feb-18 21:28N 26°06' W 080°10'0 0.0
2017-Feb-18 20:31N 26°06' W 080°10'0 0.0
2017-Feb-18 19:31N 26°06' W 080°10'0 0.0
2017-Feb-18 18:31N 26°06' W 080°10'0 0.0
2017-Feb-18 17:34N 26°06' W 080°10'0 0.0
2017-Feb-18 16:34N 26°06' W 080°10'0 0.0
2017-Feb-18 15:34N 26°06' W 080°10'0 0.0
2017-Feb-18 14:34N 26°06' W 080°10'0 0.0
2017-Feb-18 13:34N 26°06' W 080°10'0 0.0
2017-Feb-18 12:34N 26°06' W 080°10'0 0.0
2017-Feb-18 11:25N 26°06' W 080°10'0 0.0
2017-Feb-18 10:25N 26°06' W 080°10'0 0.0
2017-Feb-18 09:25N 26°06' W 080°10'0 0.0
2017-Feb-18 08:28N 26°06' W 080°10'0 0.0
2017-Feb-18 07:28N 26°06' W 080°10'0 0.0
2017-Feb-18 06:28N 26°06' W 080°10'0 0.0
2017-Feb-18 05:31N 26°06' W 080°10'0 0.0
2017-Feb-18 04:31N 26°06' W 080°10'0 0.0
2017-Feb-18 03:34N 26°06' W 080°10'0 0.0
2017-Feb-18 02:34N 26°06' W 080°10'0 0.0
2017-Feb-18 01:34N 26°06' W 080°10'0 0.0
2017-Feb-18 00:34N 26°06' W 080°10'0 0.0
2017-Feb-17 23:34N 26°06' W 080°10'0 0.0
2017-Feb-17 22:34N 26°06' W 080°10'0 0.0
2017-Feb-17 21:34N 26°06' W 080°10'0 0.0
2017-Feb-17 20:34N 26°06' W 080°10'0 0.0
2017-Feb-17 19:26N 26°06' W 080°10'0 0.0
2017-Feb-17 18:25N 26°06' W 080°10'0 0.0
2017-Feb-17 17:25N 26°06' W 080°10'0 0.0
2017-Feb-17 16:25N 26°06' W 080°10'0 0.0
2017-Feb-17 15:28N 26°06' W 080°10'0 0.0
2017-Feb-17 14:28N 26°06' W 080°10'0 0.0
2017-Feb-17 13:28N 26°06' W 080°10'0 0.0
2017-Feb-17 12:31N 26°06' W 080°10'0 0.0
2017-Feb-17 11:31N 26°06' W 080°10'0 0.0
2017-Feb-17 10:31N 26°06' W 080°10'0 0.0
2017-Feb-17 09:28N 26°06' W 080°10'0 0.0
2017-Feb-17 08:31N 26°06' W 080°10'0 0.0
2017-Feb-17 07:31N 26°06' W 080°10'0 0.0
2017-Feb-17 06:31N 26°06' W 080°10'0 0.0
2017-Feb-17 05:22N 26°06' W 080°10'0 0.0
2017-Feb-17 04:25N 26°06' W 080°10'0 0.0
2017-Feb-17 03:25N 26°06' W 080°10'0 0.0
2017-Feb-17 02:10N 26°06' W 080°10'0 0.0
2017-Feb-17 01:28N 26°06' W 080°10'0 0.0
2017-Feb-17 00:28N 26°06' W 080°10'0 0.0
2017-Feb-16 23:28N 26°06' W 080°10'0 0.0
2017-Feb-16 22:31N 26°06' W 080°10'0 0.0
2017-Feb-16 21:28N 26°06' W 080°10'0 0.0
2017-Feb-16 20:31N 26°06' W 080°10'0 0.0
2017-Feb-16 19:31N 26°06' W 080°10'0 0.0
2017-Feb-16 18:31N 26°06' W 080°10'0 0.0
2017-Feb-16 17:31N 26°06' W 080°10'0 0.0
2017-Feb-16 16:31N 26°06' W 080°10'0 0.0
2017-Feb-16 15:22N 26°06' W 080°10'0 0.0
2017-Feb-16 14:19N 26°06' W 080°10'0 0.0
2017-Feb-16 13:25N 26°06' W 080°10'0 0.0
2017-Feb-16 12:25N 26°06' W 080°10'0 0.0
2017-Feb-16 11:25N 26°06' W 080°10'0 0.0
2017-Feb-16 10:28N 26°06' W 080°10'0 0.0
2017-Feb-16 09:28N 26°06' W 080°10'0 0.0
2017-Feb-16 08:31N 26°06' W 080°10'0 0.0
2017-Feb-16 07:31N 26°06' W 080°10'0 0.0
2017-Feb-16 06:28N 26°06' W 080°10'0 0.0
2017-Feb-16 05:31N 26°06' W 080°10'0 0.0
2017-Feb-16 04:31N 26°06' W 080°10'0 0.0
2017-Feb-16 03:31N 26°06' W 080°10'0 0.0
2017-Feb-16 02:31N 26°06' W 080°10'0 0.0
2017-Feb-16 01:22N 26°06' W 080°10'0 0.0
2017-Feb-16 00:22N 26°06' W 080°10'0 0.0
2017-Feb-15 23:25N 26°06' W 080°10'0 0.0
2017-Feb-15 22:25N 26°06' W 080°10'0 0.0
2017-Feb-15 21:25N 26°06' W 080°10'0 0.0
2017-Feb-15 20:25N 26°06' W 080°10'0 0.0
2017-Feb-15 19:28N 26°06' W 080°10'0 0.0
2017-Feb-15 18:28N 26°06' W 080°10'0 0.0
2017-Feb-15 17:31N 26°06' W 080°10'0 0.0
2017-Feb-15 16:31N 26°06' W 080°10'0 0.0
2017-Feb-15 15:31N 26°06' W 080°10'0 0.0
2017-Feb-15 14:31N 26°06' W 080°10'0 0.0
2017-Feb-15 13:31N 26°06' W 080°10'0 0.0
2017-Feb-15 12:31N 26°06' W 080°10'0 0.0
2017-Feb-15 11:31N 26°06' W 080°10'0 0.0
2017-Feb-15 10:22N 26°06' W 080°10'0 0.0
2017-Feb-15 09:25N 26°06' W 080°10'0 0.0
2017-Feb-15 08:25N 26°06' W 080°10'0 0.0
2017-Feb-15 07:25N 26°06' W 080°10'0 0.0
2017-Feb-15 06:28N 26°06' W 080°10'0 0.0
2017-Feb-15 05:28N 26°06' W 080°10'0 0.0
2017-Feb-15 04:28N 26°06' W 080°10'0 0.0
2017-Feb-15 03:31N 26°06' W 080°10'0 0.0
2017-Feb-15 02:31N 26°06' W 080°10'0 0.0
2017-Feb-15 01:31N 26°06' W 080°10'0 0.0
2017-Feb-15 00:31N 26°06' W 080°10'0 0.0
2017-Feb-14 23:31N 26°06' W 080°10'0 0.0
2017-Feb-14 22:31N 26°06' W 080°10'0 0.0
2017-Feb-14 21:31N 26°06' W 080°10'  

Dump ship's entire track history